Time;durP1;ratioP1;P1;durP2;ratioP2;P2;SDS_P1;SDS_P2;PMS_P1;PMS_P2;Temp;Humidity;BMP_temperature;BMP_pressure;BME280_temperature;BME280_humidity;BME280_pressure;Samples;Min_cycle;Max_cycle;Signal;HPM_P1;HPM_P2
2021/12/04 00:03:00;;;;;;;10.23;3.70;;;4.90;99.90;;;;;;20664374;28;20049;-44
2021/12/04 00:13:02;;;;;;;11.00;3.92;;;4.90;99.90;;;;;;20667256;28;20042;-44
2021/12/04 00:23:03;;;;;;;10.88;3.20;;;4.90;99.90;;;;;;20655470;28;20042;-44
2021/12/04 00:33:11;;;;;;;10.10;2.88;;;4.90;99.90;;;;;;20662538;28;20052;-44
2021/12/04 00:53:19;;;;;;;9.33;3.03;;;4.90;99.90;;;;;;20658782;28;20038;-44
2021/12/04 01:03:20;;;;;;;11.02;3.83;;;5.00;99.90;;;;;;20662016;28;20049;-44
2021/12/04 01:13:21;;;;;;;17.67;4.90;;;5.00;99.90;;;;;;20661379;28;20034;-44
2021/12/04 01:23:22;;;;;;;14.40;4.15;;;5.10;99.90;;;;;;20657628;28;20046;-44
2021/12/04 01:33:23;;;;;;;9.93;4.10;;;5.00;99.90;;;;;;20640726;28;20048;-44
2021/12/04 01:43:25;;;;;;;16.70;5.10;;;5.00;99.90;;;;;;20653924;28;20050;-44
2021/12/04 01:53:27;;;;;;;13.80;4.97;;;5.00;99.90;;;;;;20644815;28;20158;-44
2021/12/04 02:03:28;;;;;;;17.73;5.20;;;5.00;99.90;;;;;;20650717;28;20049;-44
2021/12/04 02:13:29;;;;;;;12.65;4.80;;;5.00;99.90;;;;;;20647160;28;20045;-44
2021/12/04 02:23:31;;;;;;;17.70;6.45;;;5.10;99.90;;;;;;20646475;28;20054;-44
2021/12/04 02:33:32;;;;;;;20.00;5.68;;;5.10;99.90;;;;;;20642824;28;20054;-44
2021/12/04 02:43:34;;;;;;;23.48;7.20;;;5.10;99.90;;;;;;20645690;28;20046;-44
2021/12/04 02:53:36;;;;;;;17.02;6.00;;;5.10;99.90;;;;;;20625236;28;20038;-44
2021/12/04 03:03:37;;;;;;;11.85;4.38;;;5.20;99.90;;;;;;20639763;28;20514;-44
2021/12/04 03:13:38;;;;;;;20.92;7.03;;;5.20;99.90;;;;;;20643547;28;22034;-44
2021/12/04 03:23:42;;;;;;;18.65;5.93;;;5.20;99.90;;;;;;20638253;28;20026;-44
2021/12/04 03:44:03;;;;;;;11.93;5.13;;;5.20;99.90;;;;;;20655709;28;20066;-44
2021/12/04 03:54:04;;;;;;;23.48;6.20;;;5.30;99.90;;;;;;20655245;28;20038;-44
2021/12/04 04:04:05;;;;;;;20.85;6.22;;;5.20;99.90;;;;;;20655591;28;20742;-44
2021/12/04 04:14:06;;;;;;;17.83;5.75;;;5.30;99.90;;;;;;20653020;28;20192;-44
2021/12/04 04:24:15;;;;;;;22.30;6.63;;;5.20;99.90;;;;;;20653535;28;20104;-44
2021/12/04 04:34:26;;;;;;;18.35;5.50;;;5.20;99.90;;;;;;20649869;28;20041;-44
2021/12/04 05:25:36;;;;;;;31.05;5.65;;;5.20;99.90;;;;;;20647275;28;20041;-44
2021/12/04 05:35:37;;;;;;;15.55;4.65;;;5.30;99.90;;;;;;20650472;28;20026;-44
2021/12/04 05:45:43;;;;;;;15.77;6.30;;;5.20;99.90;;;;;;20645413;28;20046;-44
2021/12/04 05:55:54;;;;;;;15.35;4.85;;;5.30;99.90;;;;;;20641718;28;21621;-44
2021/12/04 06:05:56;;;;;;;18.70;5.03;;;5.30;99.90;;;;;;20648052;28;20038;-44
2021/12/04 06:15:57;;;;;;;14.20;4.13;;;5.30;99.90;;;;;;20651530;28;20495;-44
2021/12/04 06:26:00;;;;;;;13.15;5.32;;;5.20;99.90;;;;;;20643662;28;20133;-44
2021/12/04 06:36:04;;;;;;;17.67;4.80;;;5.20;99.90;;;;;;20644700;28;20490;-44
2021/12/04 06:46:08;;;;;;;23.48;5.18;;;5.20;99.90;;;;;;20641442;28;20413;-44
2021/12/04 06:56:11;;;;;;;17.90;5.25;;;5.20;99.90;;;;;;20640833;28;20034;-44
2021/12/04 07:06:12;;;;;;;18.88;5.95;;;5.30;99.90;;;;;;20640755;28;20050;-44
2021/12/04 07:16:16;;;;;;;23.88;5.53;;;5.30;99.90;;;;;;20646438;28;20038;-44
2021/12/04 07:26:18;;;;;;;25.10;5.95;;;5.30;99.90;;;;;;20644961;28;20042;-44
2021/12/04 07:36:22;;;;;;;26.05;6.25;;;5.20;99.90;;;;;;20647400;28;20609;-44
2021/12/04 07:46:23;;;;;;;16.30;4.18;;;5.20;99.90;;;;;;20643324;28;20715;-44
2021/12/04 07:56:24;;;;;;;19.02;6.38;;;5.20;99.90;;;;;;20643806;28;20054;-44
2021/12/04 08:06:26;;;;;;;17.60;5.45;;;5.20;99.90;;;;;;20640244;28;20669;-44
2021/12/04 08:16:27;;;;;;;18.08;4.20;;;5.20;99.90;;;;;;20643310;28;20046;-44
2021/12/04 08:26:28;;;;;;;20.60;5.80;;;5.20;99.90;;;;;;20657768;28;20034;-44
2021/12/04 08:36:32;;;;;;;19.80;4.85;;;5.30;99.90;;;;;;20654092;28;20465;-44
2021/12/04 08:46:35;;;;;;;17.15;5.63;;;5.30;99.90;;;;;;20616752;28;20049;-44
2021/12/04 08:56:36;;;;;;;21.17;5.13;;;5.20;99.90;;;;;;20634043;28;20495;-44
2021/12/04 09:06:38;;;;;;;17.88;4.43;;;5.30;99.90;;;;;;20648019;28;20666;-44
2021/12/04 09:16:39;;;;;;;27.88;5.80;;;5.30;99.90;;;;;;20654855;28;20045;-44
2021/12/04 09:37:00;;;;;;;24.63;5.28;;;5.30;99.90;;;;;;20650376;28;20533;-44
2021/12/04 10:38:44;;;;;;;19.65;5.57;;;5.50;99.90;;;;;;20640339;28;20041;-44
2021/12/04 10:48:49;;;;;;;15.70;4.85;;;5.40;99.90;;;;;;20619422;28;20437;-42
2021/12/04 11:50:51;;;;;;;26.98;5.47;;;5.60;99.90;;;;;;20655586;28;20050;-42
2021/12/04 12:00:58;;;;;;;21.17;5.53;;;5.70;99.90;;;;;;20670129;28;21866;-42
2021/12/04 12:11:02;;;;;;;21.63;6.00;;;5.70;99.90;;;;;;20664751;28;20054;-42
2021/12/04 12:21:11;;;;;;;18.40;5.25;;;5.70;99.90;;;;;;20667193;28;20066;-42
2021/12/04 12:31:52;;;;;;;21.83;6.35;;;5.80;99.90;;;;;;20661091;28;20045;-42
2021/12/04 12:41:53;;;;;;;19.15;5.00;;;5.80;99.90;;;;;;20665099;28;20602;-42
2021/12/04 12:52:26;;;;;;;19.10;4.35;;;5.80;99.90;;;;;;20663259;28;20050;-42
2021/12/04 13:12:51;;;;;;;15.52;4.35;;;5.90;99.90;;;;;;20684566;28;21327;-42
2021/12/04 13:22:52;;;;;;;13.57;4.20;;;5.90;99.90;;;;;;20684860;28;20035;-42
2021/12/04 13:32:53;;;;;;;13.35;4.03;;;5.90;99.90;;;;;;20686524;28;20048;-42
2021/12/04 13:42:56;;;;;;;12.65;4.20;;;5.90;99.90;;;;;;20670941;28;20052;-42
2021/12/04 13:53:05;;;;;;;11.93;3.45;;;6.00;99.90;;;;;;20659916;28;20043;-43
2021/12/04 14:03:06;;;;;;;18.27;5.72;;;6.00;99.90;;;;;;20679924;28;20042;-43
2021/12/04 14:13:08;;;;;;;20.88;5.97;;;6.00;99.90;;;;;;20679938;28;20038;-42
2021/12/04 14:23:11;;;;;;;16.83;5.45;;;5.90;99.90;;;;;;20676462;28;20402;-44
2021/12/04 14:33:17;;;;;;;15.88;4.85;;;6.00;99.90;;;;;;20657245;28;20041;-44
2021/12/04 14:43:21;;;;;;;11.52;3.58;;;6.00;99.90;;;;;;20665396;28;20058;-43
2021/12/04 14:53:23;;;;;;;9.55;1.77;;;5.90;99.90;;;;;;20655455;28;20049;-43
2021/12/04 15:03:31;;;;;;;6.68;1.88;;;5.90;99.90;;;;;;20619288;28;20050;-42
2021/12/04 15:13:36;;;;;;;9.95;2.47;;;5.90;99.90;;;;;;20648461;28;20438;-43
2021/12/04 15:23:39;;;;;;;6.13;3.40;;;5.90;99.90;;;;;;20663174;28;20042;-42
2021/12/04 15:33:44;;;;;;;6.10;1.73;;;5.90;99.90;;;;;;20683010;28;20031;-42
2021/12/04 15:44:04;;;;;;;8.50;1.48;;;5.90;99.90;;;;;;20678895;28;20115;-42
2021/12/04 15:54:09;;;;;;;7.38;3.55;;;5.90;99.90;;;;;;20682506;28;20038;-43
2021/12/04 16:04:29;;;;;;;5.78;3.70;;;5.90;99.90;;;;;;20672664;28;20042;-42
2021/12/04 16:14:32;;;;;;;9.20;3.50;;;5.80;99.90;;;;;;20681146;28;20031;-42
2021/12/04 16:24:36;;;;;;;2.78;1.30;;;5.80;99.90;;;;;;20674085;28;20053;-42
2021/12/04 16:44:57;;;;;;;19.70;7.70;;;5.70;99.90;;;;;;20670501;28;20052;-42
2021/12/04 17:05:03;;;;;;;6.45;2.22;;;5.60;99.90;;;;;;20663685;28;20399;-42
2021/12/04 17:15:07;;;;;;;5.00;2.22;;;5.30;99.90;;;;;;20666154;28;20044;-42
2021/12/04 17:25:09;;;;;;;5.97;2.22;;;5.20;99.90;;;;;;20661475;28;20049;-42
2021/12/04 17:35:14;;;;;;;7.03;2.35;;;5.00;99.90;;;;;;20658487;28;20521;-42
2021/12/04 17:45:16;;;;;;;3.35;1.02;;;5.00;99.90;;;;;;20663774;28;20050;-42
2021/12/04 17:55:18;;;;;;;3.40;1.30;;;5.20;99.90;;;;;;20661470;28;20053;-42
2021/12/04 18:05:24;;;;;;;3.40;0.88;;;5.20;99.90;;;;;;20663591;28;20046;-42
2021/12/04 18:15:31;;;;;;;2.55;0.70;;;5.20;99.90;;;;;;20649674;28;20386;-42
2021/12/04 18:25:32;;;;;;;2.20;0.90;;;5.30;99.90;;;;;;20662315;28;20049;-42
2021/12/04 18:35:36;;;;;;;5.13;1.42;;;5.30;99.90;;;;;;20634610;28;20046;-42
2021/12/04 18:45:38;;;;;;;5.32;1.30;;;5.30;99.90;;;;;;20655052;28;20043;-42
2021/12/04 18:55:39;;;;;;;2.28;0.73;;;5.20;99.90;;;;;;20648031;28;20038;-42
2021/12/04 19:05:43;;;;;;;1.33;0.40;;;5.40;99.90;;;;;;20643028;28;20046;-42
2021/12/04 19:15:44;;;;;;;2.83;1.08;;;5.40;99.90;;;;;;20644231;28;21846;-42
2021/12/04 19:25:46;;;;;;;2.50;0.55;;;5.40;99.90;;;;;;20649285;28;20396;-42
2021/12/04 19:56:35;;;;;;;5.22;1.45;;;5.30;99.90;;;;;;20643748;28;20054;-42
2021/12/04 20:16:57;;;;;;;1.02;0.32;;;5.30;99.90;;;;;;20653778;28;20034;-42
2021/12/04 20:27:03;;;;;;;2.30;0.90;;;5.30;99.90;;;;;;20662238;28;20045;-42
2021/12/04 21:08:14;;;;;;;2.40;1.13;;;5.20;99.90;;;;;;20622819;28;20049;-42
2021/12/04 21:49:25;;;;;;;1.20;0.40;;;5.20;99.90;;;;;;20647307;28;20050;-42
2021/12/04 22:09:51;;;;;;;1.70;0.55;;;5.20;99.90;;;;;;20650509;28;20509;-42
2021/12/04 23:01:18;;;;;;;1.90;0.40;;;5.10;99.90;;;;;;20642279;28;20177;-42
2021/12/04 23:11:26;;;;;;;2.38;0.60;;;5.20;99.90;;;;;;20644654;28;20621;-42
